Time;durP1;ratioP1;P1;durP2;ratioP2;P2;SDS_P1;SDS_P2;PMS_P1;PMS_P2;Temp;Humidity;BMP_temperature;BMP_pressure;BME280_temperature;BME280_humidity;BME280_pressure;Samples;Min_cycle;Max_cycle;Signal;HPM_P1;HPM_P2
2023/10/14 00:01:25;;;;;;;1.60;0.22;;;13.70;99.90;;;;;;5063908;28;20049;-35
2023/10/14 00:03:51;;;;;;;4.45;0.30;;;13.70;99.90;;;;;;5059971;28;20051;-35
2023/10/14 00:06:20;;;;;;;2.78;0.35;;;13.70;99.90;;;;;;5062790;28;20117;-35
2023/10/14 00:11:21;;;;;;;3.13;0.30;;;13.60;99.90;;;;;;5060421;28;20049;-35
2023/10/14 00:13:52;;;;;;;3.30;0.40;;;13.60;99.90;;;;;;5063594;28;20056;-35
2023/10/14 00:18:57;;;;;;;2.83;0.30;;;13.40;99.90;;;;;;5060851;28;20052;-35
2023/10/14 00:21:23;;;;;;;3.47;0.40;;;13.40;99.90;;;;;;5065529;28;20076;-36
2023/10/14 00:23:51;;;;;;;4.93;0.38;;;13.30;99.90;;;;;;5072808;28;20028;-34
2023/10/14 00:26:20;;;;;;;5.63;0.68;;;13.20;99.90;;;;;;5078919;28;20080;-34
2023/10/14 00:28:45;;;;;;;3.28;0.45;;;13.20;99.90;;;;;;5047450;28;20051;-35
2023/10/14 00:31:15;;;;;;;3.00;0.47;;;13.20;99.90;;;;;;5078575;28;20056;-35
2023/10/14 00:33:41;;;;;;;4.93;0.45;;;13.10;99.90;;;;;;5068827;28;20135;-35
2023/10/14 00:36:16;;;;;;;4.82;0.70;;;13.10;99.90;;;;;;5062748;28;20125;-35
2023/10/14 00:38:45;;;;;;;7.25;0.60;;;13.00;99.90;;;;;;5079814;28;20051;-35
2023/10/14 00:41:14;;;;;;;5.30;0.80;;;12.90;99.90;;;;;;5079876;28;20047;-35
2023/10/14 00:43:39;;;;;;;6.60;0.90;;;12.90;99.90;;;;;;5085001;28;20131;-35
2023/10/14 00:46:16;;;;;;;4.70;0.60;;;12.90;99.90;;;;;;5085089;28;20060;-35
2023/10/14 00:48:46;;;;;;;3.90;0.75;;;12.90;99.90;;;;;;5069933;28;20131;-35
2023/10/14 00:51:14;;;;;;;3.90;0.60;;;12.90;99.90;;;;;;5086452;28;20056;-35
2023/10/14 00:53:50;;;;;;;4.78;0.52;;;12.90;99.90;;;;;;5086029;28;20052;-35
2023/10/14 00:56:18;;;;;;;3.97;0.60;;;12.80;99.90;;;;;;5059706;28;20494;-35
2023/10/14 00:58:48;;;;;;;5.50;0.75;;;12.90;99.90;;;;;;5084479;28;20470;-35
2023/10/14 01:01:17;;;;;;;3.28;0.60;;;12.90;99.90;;;;;;5083489;28;20552;-35
2023/10/14 01:03:43;;;;;;;4.28;0.60;;;12.80;99.90;;;;;;5070345;28;20064;-34
2023/10/14 01:06:22;;;;;;;3.45;0.50;;;12.80;99.90;;;;;;5073538;28;20052;-35
2023/10/14 01:08:52;;;;;;;6.50;0.47;;;12.70;99.90;;;;;;5085074;28;20482;-35
2023/10/14 01:11:20;;;;;;;3.13;1.00;;;12.70;99.90;;;;;;5065263;28;20486;-35
2023/10/14 01:13:45;;;;;;;3.40;0.75;;;12.70;99.90;;;;;;5069847;28;20512;-35
2023/10/14 01:16:12;;;;;;;4.22;0.73;;;12.70;99.90;;;;;;5079136;28;20053;-35
2023/10/14 01:18:41;;;;;;;5.28;1.20;;;12.60;99.90;;;;;;5066894;28;20044;-35
2023/10/14 01:21:07;;;;;;;8.88;0.70;;;12.50;99.90;;;;;;5076051;28;20052;-35
2023/10/14 01:23:38;;;;;;;6.68;0.60;;;12.50;99.90;;;;;;5084608;28;20090;-35
2023/10/14 01:26:04;;;;;;;2.28;0.40;;;12.50;99.90;;;;;;5077666;28;20060;-35
2023/10/14 01:28:31;;;;;;;4.85;0.57;;;12.50;99.90;;;;;;5086282;28;20539;-35
2023/10/14 01:31:40;;;;;;;5.20;0.63;;;12.40;99.90;;;;;;5080167;28;20165;-35
2023/10/14 01:34:07;;;;;;;7.85;0.68;;;12.40;99.90;;;;;;5064700;28;20182;-35
2023/10/14 01:36:41;;;;;;;5.32;0.70;;;12.30;99.90;;;;;;5067888;28;20293;-35
2023/10/14 01:39:13;;;;;;;9.52;1.30;;;12.20;99.90;;;;;;5081016;28;20060;-34
2023/10/14 01:41:39;;;;;;;6.82;0.88;;;12.20;99.90;;;;;;5074851;28;20079;-35
2023/10/14 01:44:05;;;;;;;10.98;1.02;;;12.10;99.90;;;;;;5066813;28;20147;-35
2023/10/14 01:46:35;;;;;;;5.13;0.80;;;12.10;99.90;;;;;;5067482;28;20044;-34
2023/10/14 01:49:11;;;;;;;8.38;1.10;;;12.00;99.90;;;;;;5060100;28;20515;-35
2023/10/14 01:51:37;;;;;;;7.68;0.77;;;12.00;99.90;;;;;;5075608;28;20049;-35
2023/10/14 01:54:06;;;;;;;4.90;0.93;;;11.90;99.90;;;;;;5068326;28;20052;-35
2023/10/14 01:56:32;;;;;;;5.55;0.82;;;11.90;99.90;;;;;;5068901;28;20077;-34
2023/10/14 01:58:57;;;;;;;3.78;0.60;;;11.80;99.90;;;;;;5081150;28;20515;-35
2023/10/14 02:01:23;;;;;;;10.25;0.73;;;11.80;99.90;;;;;;5068522;28;20068;-35
2023/10/14 02:03:54;;;;;;;5.65;0.50;;;11.80;99.90;;;;;;5073063;28;20048;-34
2023/10/14 02:06:25;;;;;;;3.13;0.68;;;11.70;99.90;;;;;;5076630;28;20048;-36
2023/10/14 02:08:51;;;;;;;5.63;1.10;;;11.70;99.90;;;;;;5085422;28;20448;-37
2023/10/14 02:11:20;;;;;;;5.28;0.77;;;11.70;99.90;;;;;;5083577;28;20044;-44
2023/10/14 02:13:46;;;;;;;10.15;0.90;;;11.70;99.90;;;;;;5081338;28;20119;-35
2023/10/14 02:16:11;;;;;;;6.72;1.08;;;11.70;99.90;;;;;;5086833;28;20159;-34
2023/10/14 02:18:37;;;;;;;7.10;0.80;;;11.70;99.90;;;;;;5067264;28;20040;-36
2023/10/14 02:21:16;;;;;;;7.45;0.88;;;11.70;99.90;;;;;;5082908;28;20499;-35
2023/10/14 02:23:45;;;;;;;5.35;0.90;;;11.80;99.90;;;;;;5074241;28;20062;-35
2023/10/14 02:26:17;;;;;;;8.43;1.00;;;11.70;99.90;;;;;;5053996;28;20060;-35
2023/10/14 02:28:45;;;;;;;8.73;1.00;;;11.70;99.90;;;;;;5058036;28;20143;-35
2023/10/14 02:31:18;;;;;;;6.60;1.00;;;11.70;99.90;;;;;;5054969;28;20060;-35
2023/10/14 02:33:45;;;;;;;10.55;0.80;;;11.60;99.90;;;;;;5064944;28;20045;-36
2023/10/14 02:36:17;;;;;;;5.72;1.10;;;11.60;99.90;;;;;;5057266;28;20609;-35
2023/10/14 02:38:45;;;;;;;4.05;1.10;;;11.60;99.90;;;;;;5060236;28;20048;-35
2023/10/14 02:41:14;;;;;;;10.43;0.88;;;11.60;99.90;;;;;;5067115;28;20044;-35
2023/10/14 02:43:42;;;;;;;5.35;0.60;;;11.60;99.90;;;;;;5068644;28;20051;-36
2023/10/14 02:46:11;;;;;;;4.90;1.10;;;11.60;99.90;;;;;;5072981;28;20083;-35
2023/10/14 02:48:53;;;;;;;5.07;0.70;;;11.60;99.90;;;;;;5060482;28;20064;-35
2023/10/14 02:54:27;;;;;;;8.07;1.00;;;11.50;99.90;;;;;;5020780;28;20141;-35
2023/10/14 02:56:59;;;;;;;9.90;0.85;;;11.50;99.90;;;;;;5066855;28;20101;-34
2023/10/14 02:59:44;;;;;;;4.50;0.73;;;11.50;99.90;;;;;;5044181;28;20505;-35
2023/10/14 03:04:56;;;;;;;6.20;0.77;;;11.50;99.90;;;;;;5062381;28;20045;-35
2023/10/14 03:07:36;;;;;;;5.88;0.50;;;11.50;99.90;;;;;;5061734;28;20064;-36
2023/10/14 03:12:40;;;;;;;7.68;0.60;;;11.50;99.90;;;;;;5067728;28;20544;-35
2023/10/14 03:15:18;;;;;;;7.32;0.68;;;11.50;99.90;;;;;;5059232;28;20049;-35
2023/10/14 03:17:53;;;;;;;6.35;0.57;;;11.40;99.90;;;;;;5065265;28;20198;-35
2023/10/14 03:22:58;;;;;;;4.35;0.90;;;11.50;99.90;;;;;;5055231;28;20135;-35
2023/10/14 03:25:24;;;;;;;4.05;1.05;;;11.50;99.90;;;;;;5060483;28;20061;-35
2023/10/14 03:27:51;;;;;;;5.05;0.50;;;11.50;99.90;;;;;;5066260;28;20055;-35
2023/10/14 03:30:20;;;;;;;5.68;0.75;;;11.50;99.90;;;;;;5066072;28;20451;-35
2023/10/14 03:32:46;;;;;;;5.15;0.30;;;11.50;99.90;;;;;;5065369;28;20064;-35
2023/10/14 03:35:13;;;;;;;8.02;0.68;;;11.50;99.90;;;;;;5063073;28;20072;-38
2023/10/14 03:37:52;;;;;;;7.93;0.70;;;11.40;99.90;;;;;;5067369;28;20542;-35
2023/10/14 03:43:08;;;;;;;6.30;0.50;;;11.40;99.90;;;;;;5064524;28;20124;-49
2023/10/14 03:45:45;;;;;;;5.90;0.50;;;11.30;99.90;;;;;;5063910;28;20140;-35
2023/10/14 03:48:13;;;;;;;6.28;0.70;;;11.20;99.90;;;;;;5067468;28;20076;-35
2023/10/14 03:50:39;;;;;;;6.82;0.73;;;11.20;99.90;;;;;;5060136;28;20052;-34
2023/10/14 03:53:05;;;;;;;6.57;1.15;;;11.10;99.90;;;;;;5061840;28;20587;-35
2023/10/14 03:55:31;;;;;;;3.38;1.65;;;11.00;99.90;;;;;;5058558;28;20048;-35
2023/10/14 03:58:03;;;;;;;4.72;0.45;;;11.00;99.90;;;;;;5062833;28;20131;-36
2023/10/14 04:00:37;;;;;;;4.57;0.47;;;11.00;99.90;;;;;;5043408;28;20040;-35
2023/10/14 04:03:06;;;;;;;4.72;0.63;;;11.00;99.90;;;;;;5044874;28;20498;-34
2023/10/14 04:05:33;;;;;;;7.80;0.80;;;11.00;99.90;;;;;;5059057;28;20060;-34
2023/10/14 04:08:00;;;;;;;4.93;0.40;;;11.00;99.90;;;;;;5044830;28;20525;-35
2023/10/14 04:10:25;;;;;;;6.40;0.75;;;11.00;99.90;;;;;;5066355;28;20060;-35
2023/10/14 04:12:54;;;;;;;6.30;0.98;;;10.90;99.90;;;;;;5065796;28;20181;-35
2023/10/14 04:15:44;;;;;;;3.55;0.32;;;10.90;99.90;;;;;;5066427;28;20048;-35
2023/10/14 04:18:14;;;;;;;6.32;1.05;;;11.00;99.90;;;;;;5063217;28;20060;-35
2023/10/14 04:20:46;;;;;;;6.07;0.60;;;10.90;99.90;;;;;;5066310;28;20055;-35
2023/10/14 04:23:26;;;;;;;5.17;0.70;;;11.00;99.90;;;;;;5064477;28;20402;-35
2023/10/14 04:26:11;;;;;;;6.32;0.60;;;11.00;99.90;;;;;;5066793;28;20059;-35
2023/10/14 04:28:53;;;;;;;5.50;0.68;;;11.00;99.90;;;;;;5071666;28;20051;-35
2023/10/14 04:31:38;;;;;;;5.00;0.50;;;11.00;99.90;;;;;;5062918;28;20044;-34
2023/10/14 04:34:06;;;;;;;5.20;0.60;;;11.00;99.90;;;;;;5063728;28;20143;-41
2023/10/14 04:39:13;;;;;;;9.52;0.80;;;11.00;99.90;;;;;;5065277;28;20052;-35
2023/10/14 04:41:55;;;;;;;7.03;0.77;;;11.00;99.90;;;;;;5065604;28;20044;-35
2023/10/14 04:44:23;;;;;;;6.30;0.70;;;10.90;99.90;;;;;;5061617;28;20079;-34
2023/10/14 04:47:01;;;;;;;12.23;1.30;;;10.90;99.90;;;;;;5065976;28;20048;-35
2023/10/14 04:49:51;;;;;;;10.07;1.20;;;11.00;99.90;;;;;;5067156;28;20049;-35
2023/10/14 04:52:18;;;;;;;8.05;0.73;;;11.00;99.90;;;;;;5065619;28;20074;-35
2023/10/14 04:55:06;;;;;;;4.80;1.08;;;11.00;99.90;;;;;;5058013;28;20560;-35
2023/10/14 04:57:32;;;;;;;7.25;0.88;;;11.00;99.90;;;;;;5069399;28;20048;-34
2023/10/14 05:00:08;;;;;;;5.60;0.60;;;11.00;99.90;;;;;;5063907;28;20103;-35
2023/10/14 05:02:37;;;;;;;6.93;0.68;;;11.00;99.90;;;;;;5062413;28;20062;-35
2023/10/14 05:05:06;;;;;;;5.35;0.55;;;11.00;99.90;;;;;;5070340;28;20053;-35
2023/10/14 05:07:32;;;;;;;10.85;0.73;;;10.90;99.90;;;;;;5068040;28;20048;-35
2023/10/14 05:10:06;;;;;;;6.18;1.00;;;10.90;99.90;;;;;;5065209;28;20521;-35
2023/10/14 05:12:40;;;;;;;7.93;1.10;;;11.00;99.90;;;;;;5065834;28;20052;-35
2023/10/14 05:15:22;;;;;;;5.10;0.70;;;11.00;99.90;;;;;;5064136;28;20058;-35
2023/10/14 05:17:50;;;;;;;8.60;0.80;;;11.00;99.90;;;;;;5058559;28;20059;-35
2023/10/14 05:20:19;;;;;;;11.10;0.70;;;11.00;99.90;;;;;;5060935;28;20441;-34
2023/10/14 05:22:47;;;;;;;9.40;0.88;;;11.00;99.90;;;;;;5045178;28;20452;-35
2023/10/14 05:25:16;;;;;;;5.53;0.65;;;11.00;99.90;;;;;;5062397;28;20063;-35
2023/10/14 05:27:55;;;;;;;8.80;1.02;;;11.00;99.90;;;;;;5066576;28;20048;-36
2023/10/14 05:30:32;;;;;;;8.65;0.60;;;10.90;99.90;;;;;;5062191;28;20110;-39
2023/10/14 05:33:06;;;;;;;11.75;1.15;;;10.90;99.90;;;;;;5057784;28;20098;-36
2023/10/14 05:35:37;;;;;;;8.90;0.95;;;10.90;99.90;;;;;;5059677;28;20045;-35
2023/10/14 05:38:09;;;;;;;9.80;0.95;;;10.80;99.90;;;;;;5057577;28;20044;-34
2023/10/14 05:40:39;;;;;;;6.60;1.02;;;10.80;99.90;;;;;;5059533;28;20048;-35
2023/10/14 05:43:08;;;;;;;9.40;1.17;;;10.80;99.90;;;;;;5058710;28;20044;-35
2023/10/14 05:45:37;;;;;;;12.85;1.27;;;10.80;99.90;;;;;;5057347;28;20484;-35
2023/10/14 05:48:04;;;;;;;4.97;0.82;;;10.80;99.90;;;;;;5061985;28;20052;-35
2023/10/14 05:50:35;;;;;;;5.20;0.50;;;10.70;99.90;;;;;;5061108;28;20060;-34
2023/10/14 05:53:01;;;;;;;6.28;0.70;;;10.70;99.90;;;;;;5061686;28;20083;-35
2023/10/14 05:55:30;;;;;;;8.32;0.73;;;10.60;99.90;;;;;;5059842;28;20106;-34
2023/10/14 05:58:00;;;;;;;6.57;0.63;;;10.70;99.90;;;;;;5059654;28;20044;-35
2023/10/14 06:00:27;;;;;;;8.88;1.83;;;10.60;99.90;;;;;;5060001;28;20605;-36
2023/10/14 06:02:54;;;;;;;5.65;1.00;;;10.60;99.90;;;;;;5059223;28;20565;-34
2023/10/14 06:05:22;;;;;;;7.53;1.00;;;10.60;99.90;;;;;;5063317;28;20080;-35
2023/10/14 06:07:48;;;;;;;5.30;0.70;;;10.50;99.90;;;;;;5061657;28;20045;-35
2023/10/14 06:10:23;;;;;;;5.22;0.60;;;10.60;99.90;;;;;;5065017;28;20052;-37
2023/10/14 06:12:52;;;;;;;5.30;0.80;;;10.50;99.90;;;;;;5064236;28;20507;-34
2023/10/14 06:15:19;;;;;;;8.45;0.75;;;10.50;99.90;;;;;;5063939;28;20499;-35
2023/10/14 06:17:49;;;;;;;7.72;0.70;;;10.50;99.90;;;;;;5064191;28;20528;-34
2023/10/14 06:20:15;;;;;;;5.20;0.80;;;10.50;99.90;;;;;;5069570;28;20052;-35
2023/10/14 06:22:42;;;;;;;6.65;1.02;;;10.50;99.90;;;;;;5066148;28;20490;-35
2023/10/14 06:25:08;;;;;;;4.05;0.60;;;10.40;99.90;;;;;;5070136;28;20045;-35
2023/10/14 06:27:34;;;;;;;4.38;0.60;;;10.40;99.90;;;;;;5064129;28;20064;-35
2023/10/14 06:29:59;;;;;;;8.30;0.70;;;10.50;99.90;;;;;;5067287;28;20414;-35
2023/10/14 06:32:25;;;;;;;12.57;1.08;;;10.50;99.90;;;;;;5063379;28;20051;-35
2023/10/14 06:35:02;;;;;;;10.32;0.90;;;10.50;99.90;;;;;;5070524;28;20951;-34
2023/10/14 06:37:28;;;;;;;10.40;0.82;;;10.60;99.90;;;;;;5069558;28;20049;-36
2023/10/14 06:39:56;;;;;;;7.07;0.75;;;10.60;99.90;;;;;;5066414;28;20444;-35
2023/10/14 06:42:22;;;;;;;8.60;0.80;;;10.60;99.90;;;;;;5068173;28;20497;-35
2023/10/14 06:44:48;;;;;;;6.75;0.85;;;10.70;99.90;;;;;;5066620;28;20056;-35
2023/10/14 06:47:14;;;;;;;2.33;0.47;;;10.80;99.90;;;;;;5062904;28;20069;-35
2023/10/14 06:49:41;;;;;;;6.93;0.68;;;10.80;99.90;;;;;;5057008;28;20087;-35
2023/10/14 06:52:14;;;;;;;5.70;0.85;;;10.90;99.90;;;;;;5067619;28;20083;-34
2023/10/14 06:54:41;;;;;;;5.75;1.00;;;10.90;99.90;;;;;;5069929;28;20441;-34
2023/10/14 06:57:10;;;;;;;7.88;0.77;;;11.00;99.90;;;;;;5067939;28;20070;-35
2023/10/14 06:59:37;;;;;;;4.78;0.60;;;11.00;99.90;;;;;;5064936;28;20498;-35
2023/10/14 07:02:03;;;;;;;7.85;1.00;;;11.00;99.90;;;;;;5055408;28;20060;-35
2023/10/14 07:04:28;;;;;;;4.72;1.30;;;11.00;99.90;;;;;;5068465;28;20162;-35
2023/10/14 07:06:58;;;;;;;13.27;1.02;;;11.00;99.90;;;;;;5069181;28;20071;-34
2023/10/14 07:09:27;;;;;;;7.32;0.70;;;11.10;99.90;;;;;;5065975;28;20402;-35
2023/10/14 07:11:55;;;;;;;7.32;0.75;;;11.10;99.90;;;;;;5068887;28;20056;-35
2023/10/14 07:14:21;;;;;;;8.65;0.77;;;11.10;99.90;;;;;;5049977;28;20190;-35
2023/10/14 07:16:47;;;;;;;8.00;1.08;;;11.10;99.90;;;;;;5048659;28;20132;-34
2023/10/14 07:19:12;;;;;;;5.90;1.40;;;11.20;99.90;;;;;;5064636;28;20438;-35
2023/10/14 07:21:38;;;;;;;6.40;1.20;;;11.30;99.90;;;;;;5066195;28;20490;-34
2023/10/14 07:24:07;;;;;;;9.02;0.77;;;11.50;99.90;;;;;;5057170;28;20049;-34
2023/10/14 07:26:39;;;;;;;9.63;1.10;;;11.50;99.90;;;;;;5047119;28;20505;-35
2023/10/14 07:29:05;;;;;;;7.32;0.80;;;11.60;99.90;;;;;;5063046;28;20045;-35
2023/10/14 07:31:32;;;;;;;10.82;1.33;;;11.60;99.90;;;;;;5052463;28;20036;-35
2023/10/14 07:34:04;;;;;;;8.35;0.77;;;11.60;99.90;;;;;;5059981;28;20041;-34
2023/10/14 07:36:34;;;;;;;10.40;1.35;;;11.60;99.90;;;;;;5023624;28;20156;-36
2023/10/14 07:41:44;;;;;;;6.80;0.75;;;11.60;99.90;;;;;;5055861;28;22062;-34
2023/10/14 07:44:10;;;;;;;7.30;1.10;;;11.70;99.90;;;;;;5059221;28;20123;-34
2023/10/14 07:46:36;;;;;;;12.48;1.17;;;11.80;99.90;;;;;;5067574;28;20059;-34
2023/10/14 07:49:02;;;;;;;7.45;0.68;;;11.90;99.90;;;;;;5062936;28;20067;-34
2023/10/14 07:51:28;;;;;;;9.05;0.98;;;12.00;99.90;;;;;;5062115;28;20079;-34
2023/10/14 07:53:54;;;;;;;10.35;0.80;;;12.10;99.90;;;;;;5051021;28;20053;-34
2023/10/14 07:56:22;;;;;;;6.70;1.33;;;12.10;99.90;;;;;;5053933;28;20048;-34
2023/10/14 07:58:48;;;;;;;8.10;0.93;;;12.20;99.90;;;;;;5043014;28;20086;-33
2023/10/14 08:01:17;;;;;;;8.77;1.27;;;12.30;99.90;;;;;;5059190;28;20056;-34
2023/10/14 08:03:42;;;;;;;7.95;1.13;;;12.40;99.90;;;;;;5058042;28;20056;-34
2023/10/14 08:06:10;;;;;;;12.10;1.40;;;12.50;99.90;;;;;;5047470;28;20052;-34
2023/10/14 08:08:47;;;;;;;5.13;0.80;;;12.60;99.90;;;;;;5059249;28;20056;-34
2023/10/14 08:11:13;;;;;;;7.30;1.52;;;12.70;99.90;;;;;;5057988;28;20154;-34
2023/10/14 08:13:40;;;;;;;8.27;0.85;;;12.70;99.90;;;;;;5061269;28;20065;-34
2023/10/14 08:16:07;;;;;;;6.95;0.82;;;12.80;99.90;;;;;;5052803;28;20052;-35
2023/10/14 08:18:34;;;;;;;8.90;1.52;;;12.90;99.90;;;;;;5049300;28;20134;-34
2023/10/14 08:21:00;;;;;;;10.65;1.00;;;12.90;99.90;;;;;;5046108;28;20090;-34
2023/10/14 08:23:28;;;;;;;3.95;0.70;;;12.90;99.90;;;;;;5055772;28;20680;-35
2023/10/14 08:25:54;;;;;;;7.05;1.08;;;13.00;99.90;;;;;;5037618;28;21389;-35
2023/10/14 08:28:32;;;;;;;6.60;1.05;;;13.00;99.90;;;;;;5057018;28;20056;-48
2023/10/14 08:30:59;;;;;;;8.23;0.95;;;13.00;99.90;;;;;;5063338;28;20541;-35
2023/10/14 08:33:28;;;;;;;6.28;0.80;;;13.00;99.90;;;;;;5068703;28;20557;-34
2023/10/14 08:35:55;;;;;;;7.93;0.52;;;13.10;99.90;;;;;;5054671;28;20127;-34
2023/10/14 08:38:27;;;;;;;6.15;0.90;;;13.10;99.90;;;;;;5047233;28;20049;-34
2023/10/14 08:40:59;;;;;;;9.83;0.63;;;13.20;99.90;;;;;;5060071;28;20045;-34
2023/10/14 08:43:26;;;;;;;;;;;13.20;99.90;;;;;;5064018;28;20303;-34
2023/10/14 08:45:53;;;;;;;11.52;1.23;;;13.20;99.90;;;;;;5070583;28;19916;-34
2023/10/14 08:48:24;;;;;;;9.57;0.68;;;13.30;99.90;;;;;;5067607;28;20418;-34
2023/10/14 08:50:58;;;;;;;4.88;0.68;;;13.30;99.90;;;;;;5054076;28;20057;-34
2023/10/14 08:53:25;;;;;;;7.57;0.88;;;13.40;99.90;;;;;;5062903;28;20113;-34
2023/10/14 08:55:52;;;;;;;9.10;0.82;;;13.40;99.90;;;;;;5043886;28;20052;-40
2023/10/14 08:58:22;;;;;;;6.40;0.77;;;13.40;99.90;;;;;;5046521;28;20068;-34
2023/10/14 09:00:50;;;;;;;6.28;0.80;;;13.40;99.90;;;;;;5054442;28;20052;-34
2023/10/14 09:03:16;;;;;;;5.50;0.57;;;13.40;99.90;;;;;;5034684;28;20049;-34
2023/10/14 09:05:46;;;;;;;7.72;0.95;;;13.40;99.90;;;;;;5050113;28;20040;-34
2023/10/14 09:08:17;;;;;;;8.70;0.75;;;13.50;99.90;;;;;;5040331;28;20562;-34
2023/10/14 09:10:43;;;;;;;6.40;0.73;;;13.50;99.90;;;;;;5052352;28;20036;-35
2023/10/14 09:13:11;;;;;;;9.35;0.85;;;13.50;99.90;;;;;;5060806;28;20029;-34
2023/10/14 09:15:43;;;;;;;6.00;0.75;;;13.50;99.90;;;;;;5065616;28;20080;-34
2023/10/14 09:18:21;;;;;;;5.00;0.50;;;13.60;99.90;;;;;;5064346;28;20166;-34
2023/10/14 09:20:54;;;;;;;6.68;0.77;;;13.60;99.90;;;;;;5048862;28;20049;-34
2023/10/14 09:23:27;;;;;;;3.42;0.57;;;13.70;99.90;;;;;;5062139;28;20363;-35
2023/10/14 09:25:58;;;;;;;4.03;0.50;;;13.70;99.90;;;;;;5066535;28;20056;-34
2023/10/14 09:28:34;;;;;;;9.70;0.88;;;13.80;99.90;;;;;;5058377;28;20041;-34
2023/10/14 09:31:02;;;;;;;5.70;0.47;;;13.90;99.90;;;;;;5060028;28;20088;-34
2023/10/14 09:33:31;;;;;;;5.22;1.00;;;13.90;99.90;;;;;;5039612;28;20502;-34
2023/10/14 09:36:04;;;;;;;13.63;1.08;;;14.10;99.90;;;;;;5056359;28;20407;-34
2023/10/14 09:38:33;;;;;;;9.75;0.85;;;14.20;99.90;;;;;;5056422;28;20124;-34
2023/10/14 09:41:04;;;;;;;2.60;0.60;;;14.30;99.90;;;;;;5063725;28;20495;-34
2023/10/14 09:43:32;;;;;;;7.28;0.95;;;14.40;99.90;;;;;;5059280;28;20044;-34
2023/10/14 09:45:59;;;;;;;7.28;0.70;;;14.40;99.90;;;;;;5057471;28;20475;-34
2023/10/14 09:48:30;;;;;;;8.85;0.85;;;14.50;99.90;;;;;;5063121;28;20052;-34
2023/10/14 09:50:56;;;;;;;5.60;0.65;;;14.50;99.90;;;;;;5060602;28;20949;-34
2023/10/14 09:53:29;;;;;;;5.85;0.68;;;14.60;99.90;;;;;;5067771;28;20051;-34
2023/10/14 09:56:04;;;;;;;4.30;0.60;;;14.70;99.90;;;;;;5065742;28;20075;-34
2023/10/14 09:58:41;;;;;;;3.67;0.60;;;14.70;99.90;;;;;;5064189;28;20048;-34
2023/10/14 10:01:07;;;;;;;6.50;0.80;;;14.80;99.90;;;;;;5061360;28;20057;-34
2023/10/14 10:04:05;;;;;;;5.25;0.90;;;14.50;99.90;;;;;;5064251;28;20498;-35
2023/10/14 10:06:53;;;;;;;2.90;0.40;;;14.10;99.90;;;;;;5058649;28;20048;-34
2023/10/14 10:10:00;;;;;;;4.18;0.35;;;13.70;99.90;;;;;;5067051;28;20501;-34
2023/10/14 10:12:30;;;;;;;3.03;0.65;;;13.60;99.90;;;;;;5065139;28;20040;-34
2023/10/14 10:15:06;;;;;;;4.43;0.50;;;13.60;99.90;;;;;;5051285;28;20056;-34
2023/10/14 10:17:34;;;;;;;3.40;0.50;;;13.70;99.90;;;;;;5060274;28;20052;-34
2023/10/14 10:20:09;;;;;;;4.93;0.50;;;13.80;99.90;;;;;;5068523;28;20051;-34
2023/10/14 10:22:56;;;;;;;5.57;0.77;;;13.90;99.90;;;;;;5068364;28;20121;-34
2023/10/14 10:25:47;;;;;;;6.32;0.55;;;14.20;99.90;;;;;;5061115;28;20516;-34
2023/10/14 10:28:27;;;;;;;8.80;0.80;;;14.30;99.90;;;;;;5061099;28;20504;-34
2023/10/14 10:31:13;;;;;;;5.32;0.95;;;14.40;99.90;;;;;;5068743;28;20052;-36
2023/10/14 10:33:45;;;;;;;4.40;0.50;;;14.50;99.90;;;;;;5049172;28;20137;-34
2023/10/14 10:36:12;;;;;;;5.47;0.55;;;14.60;99.90;;;;;;5067025;28;20052;-35
2023/10/14 10:38:38;;;;;;;5.03;0.50;;;14.60;99.90;;;;;;5069574;28;20051;-35
2023/10/14 10:41:23;;;;;;;4.05;0.45;;;14.40;99.90;;;;;;5066514;28;20052;-35
2023/10/14 10:43:50;;;;;;;6.20;0.40;;;14.40;99.90;;;;;;5058924;28;20045;-35
2023/10/14 10:46:29;;;;;;;6.47;1.05;;;14.40;99.90;;;;;;5053274;28;20055;-35
2023/10/14 10:48:54;;;;;;;5.63;0.70;;;14.40;99.90;;;;;;5058190;28;20049;-35
2023/10/14 10:51:23;;;;;;;5.93;0.60;;;14.60;99.90;;;;;;5061780;28;20040;-35
2023/10/14 10:53:49;;;;;;;5.10;0.50;;;14.70;99.90;;;;;;5050509;28;20041;-35
2023/10/14 10:56:19;;;;;;;6.38;0.50;;;14.80;99.90;;;;;;5057266;28;20071;-34
2023/10/14 10:58:45;;;;;;;6.78;0.77;;;14.80;99.90;;;;;;5065317;28;20084;-35
2023/10/14 11:01:12;;;;;;;3.58;0.40;;;14.90;99.90;;;;;;5049540;28;20076;-35
2023/10/14 11:03:38;;;;;;;3.25;0.40;;;14.80;99.90;;;;;;5053374;28;20041;-34
2023/10/14 11:06:04;;;;;;;7.25;0.30;;;14.60;99.90;;;;;;5057396;28;20048;-35
2023/10/14 11:08:30;;;;;;;2.60;0.43;;;14.50;99.90;;;;;;5063585;28;20409;-35
2023/10/14 11:10:57;;;;;;;3.63;0.80;;;14.50;99.90;;;;;;5049828;28;20087;-35
2023/10/14 11:13:23;;;;;;;5.72;0.60;;;14.40;99.90;;;;;;5053558;28;20055;-36
2023/10/14 11:15:50;;;;;;;5.72;0.57;;;14.30;99.90;;;;;;5038973;28;20111;-40
2023/10/14 11:18:18;;;;;;;4.93;0.47;;;14.00;99.90;;;;;;5032686;28;20084;-34
2023/10/14 11:20:45;;;;;;;6.72;1.05;;;13.90;99.90;;;;;;5049195;28;20051;-35
2023/10/14 11:23:12;;;;;;;6.68;0.57;;;13.90;99.90;;;;;;5059155;28;20052;-35
2023/10/14 11:25:42;;;;;;;7.43;0.80;;;14.20;99.90;;;;;;5078701;28;20047;-35
2023/10/14 11:28:10;;;;;;;6.55;0.50;;;14.60;99.90;;;;;;5086830;28;20079;-37
2023/10/14 11:30:46;;;;;;;3.75;0.30;;;14.60;99.90;;;;;;5076961;28;20053;-36
2023/10/14 11:33:18;;;;;;;3.40;0.45;;;13.40;99.90;;;;;;5082458;28;20413;-34
2023/10/14 11:35:49;;;;;;;6.53;0.57;;;12.70;99.90;;;;;;5078886;28;20626;-35
2023/10/14 11:38:15;;;;;;;5.60;0.60;;;12.30;99.90;;;;;;5078907;28;20076;-34
2023/10/14 11:40:47;;;;;;;4.18;0.70;;;12.20;99.90;;;;;;5078396;28;20126;-34
2023/10/14 11:43:12;;;;;;;4.63;0.50;;;12.40;99.90;;;;;;5079344;28;20055;-35
2023/10/14 11:45:45;;;;;;;7.13;0.68;;;12.80;99.90;;;;;;5078672;28;20048;-35
2023/10/14 11:48:24;;;;;;;;;;;13.20;99.90;;;;;;5086003;28;20128;-34
2023/10/14 11:51:11;;;;;;;5.10;0.90;;;13.40;99.90;;;;;;5088839;28;20425;-36
2023/10/14 11:53:43;;;;;;;3.03;0.55;;;13.10;99.90;;;;;;5087295;28;20413;-34
2023/10/14 11:56:13;;;;;;;8.23;0.75;;;12.80;99.90;;;;;;5095856;28;20048;-35
2023/10/14 11:58:40;;;;;;;4.22;0.50;;;12.60;99.90;;;;;;5066690;28;20043;-35
2023/10/14 12:01:07;;;;;;;3.33;0.60;;;12.50;99.90;;;;;;5087784;28;20055;-36
2023/10/14 12:03:32;;;;;;;6.60;0.60;;;12.50;99.90;;;;;;5068772;28;20046;-37
2023/10/14 12:05:59;;;;;;;5.15;0.63;;;12.50;99.90;;;;;;5085687;28;20131;-34
2023/10/14 12:08:29;;;;;;;7.53;1.08;;;12.50;99.90;;;;;;5086791;28;20082;-35
2023/10/14 12:10:59;;;;;;;6.20;0.40;;;12.40;99.90;;;;;;5086361;28;20044;-43
2023/10/14 12:13:27;;;;;;;6.45;0.82;;;12.50;99.90;;;;;;5086367;28;20105;-35
2023/10/14 12:15:53;;;;;;;4.70;0.80;;;12.70;99.90;;;;;;5088956;28;20409;-35
2023/10/14 12:18:20;;;;;;;6.18;0.75;;;13.10;99.90;;;;;;5087388;28;21256;-34
2023/10/14 12:20:47;;;;;;;5.15;0.40;;;13.70;99.90;;;;;;5090518;28;20040;-33
2023/10/14 12:23:19;;;;;;;3.90;0.55;;;14.00;99.90;;;;;;5089804;28;20606;-33
2023/10/14 12:25:46;;;;;;;6.32;1.23;;;14.20;99.90;;;;;;5084264;28;20043;-34
2023/10/14 12:28:17;;;;;;;2.90;0.45;;;14.50;99.90;;;;;;5085203;28;20116;-34
2023/10/14 12:30:46;;;;;;;5.00;0.40;;;14.80;99.90;;;;;;5077711;28;20047;-33
2023/10/14 12:33:19;;;;;;;2.42;0.38;;;15.10;99.90;;;;;;5085718;28;20059;-34
2023/10/14 12:35:45;;;;;;;5.35;0.30;;;15.40;99.90;;;;;;5077813;28;20494;-33
2023/10/14 12:38:15;;;;;;;3.70;0.40;;;15.80;99.90;;;;;;5078247;28;20048;-33
2023/10/14 12:40:43;;;;;;;5.95;0.68;;;16.20;99.90;;;;;;5090413;28;20056;-34
2023/10/14 12:43:12;;;;;;;4.45;0.40;;;16.60;99.90;;;;;;5085274;28;20104;-33
2023/10/14 12:45:38;;;;;;;6.75;0.50;;;16.80;99.90;;;;;;5098731;28;20044;-34
2023/10/14 12:48:11;;;;;;;2.95;0.40;;;16.90;99.90;;;;;;5085732;28;20052;-33
2023/10/14 12:50:46;;;;;;;;;;;17.20;99.90;;;;;;5084266;28;20058;-34
2023/10/14 12:53:13;;;;;;;3.95;0.40;;;17.20;99.90;;;;;;5078798;28;19920;-34
2023/10/14 12:55:44;;;;;;;6.43;0.90;;;17.40;99.90;;;;;;5085359;28;20421;-34
2023/10/14 12:58:12;;;;;;;6.78;1.52;;;17.00;99.90;;;;;;5047154;28;20080;-34
2023/10/14 13:00:38;;;;;;;5.97;0.90;;;16.30;99.90;;;;;;5084152;28;20048;-34
2023/10/14 13:03:09;;;;;;;7.38;0.70;;;15.30;99.90;;;;;;5086723;28;20071;-34
2023/10/14 13:05:37;;;;;;;5.05;0.73;;;14.40;99.90;;;;;;5082087;28;20096;-34
2023/10/14 13:08:04;;;;;;;10.77;0.70;;;13.90;99.90;;;;;;5076522;28;20485;-34
2023/10/14 13:10:29;;;;;;;7.03;1.02;;;13.70;99.90;;;;;;5081789;28;20051;-34
2023/10/14 13:12:57;;;;;;;4.28;0.60;;;14.00;99.90;;;;;;5083989;28;20063;-34
2023/10/14 13:15:28;;;;;;;3.95;0.73;;;14.80;99.90;;;;;;5083444;28;20135;-43
2023/10/14 13:17:58;;;;;;;5.97;0.68;;;15.40;99.90;;;;;;5076563;28;20143;-34
2023/10/14 13:20:35;;;;;;;4.53;0.70;;;15.20;99.90;;;;;;5076823;28;20174;-34
2023/10/14 13:23:12;;;;;;;5.20;0.52;;;15.00;99.90;;;;;;5075370;28;20506;-37
2023/10/14 13:25:38;;;;;;;3.20;0.68;;;15.60;99.90;;;;;;5067829;28;20071;-37
2023/10/14 13:28:08;;;;;;;2.75;0.40;;;16.10;99.90;;;;;;5063034;28;20044;-39